sensor_id;sensor_type;location;lat;lon;timestamp;pressure;altitude;pressure_sealevel;temperature;humidity
21760;BME280;11041;50.854;20.580;2023-04-25T00:01:04;97516.47;;;10.70;79.00
21760;BME280;11041;50.854;20.580;2023-04-25T00:03:32;97494.88;;;10.56;79.19
21760;BME280;11041;50.854;20.580;2023-04-25T00:05:59;97504.13;;;10.64;79.23
21760;BME280;11041;50.854;20.580;2023-04-25T00:08:29;97505.94;;;10.60;79.18
21760;BME280;11041;50.854;20.580;2023-04-25T00:11:00;97524.03;;;10.73;79.47
21760;BME280;11041;50.854;20.580;2023-04-25T00:13:27;97503.53;;;10.71;79.52
21760;BME280;11041;50.854;20.580;2023-04-25T00:15:53;97503.53;;;10.71;79.84
21760;BME280;11041;50.854;20.580;2023-04-25T00:18:20;97508.66;;;10.84;80.21
21760;BME280;11041;50.854;20.580;2023-04-25T00:20:49;97483.63;;;10.74;80.20
21760;BME280;11041;50.854;20.580;2023-04-25T00:23:17;97491.38;;;10.84;79.75
21760;BME280;11041;50.854;20.580;2023-04-25T00:25:45;97486.56;;;10.81;79.90
21760;BME280;11041;50.854;20.580;2023-04-25T00:28:13;97485.53;;;10.85;79.16
21760;BME280;11041;50.854;20.580;2023-04-25T00:30:40;97481.88;;;10.81;79.45
21760;BME280;11041;50.854;20.580;2023-04-25T00:33:08;97502.94;;;10.90;79.89
21760;BME280;11041;50.854;20.580;2023-04-25T00:35:35;97491.28;;;10.80;80.06
21760;BME280;11041;50.854;20.580;2023-04-25T00:38:02;97486.78;;;10.88;80.05
21760;BME280;11041;50.854;20.580;2023-04-25T00:40:28;97487.69;;;10.92;80.10
21760;BME280;11041;50.854;20.580;2023-04-25T00:42:55;97497.28;;;10.98;79.99
21760;BME280;11041;50.854;20.580;2023-04-25T00:45:27;97494.78;;;10.93;80.32
21760;BME280;11041;50.854;20.580;2023-04-25T00:47:55;97485.63;;;10.89;79.80
21760;BME280;11041;50.854;20.580;2023-04-25T00:50:24;97500.72;;;10.95;80.29
21760;BME280;11041;50.854;20.580;2023-04-25T00:52:51;97482.31;;;10.83;80.41
21760;BME280;11041;50.854;20.580;2023-04-25T00:55:18;97479.00;;;10.90;80.76
21760;BME280;11041;50.854;20.580;2023-04-25T00:57:46;97472.03;;;10.80;80.30
21760;BME280;11041;50.854;20.580;2023-04-25T01:00:13;97476.13;;;10.86;80.16
21760;BME280;11041;50.854;20.580;2023-04-25T01:02:41;97502.78;;;10.98;80.31
21760;BME280;11041;50.854;20.580;2023-04-25T01:05:08;97490.88;;;10.94;80.70
21760;BME280;11041;50.854;20.580;2023-04-25T01:07:35;97481.38;;;10.92;80.56
21760;BME280;11041;50.854;20.580;2023-04-25T01:10:02;97483.78;;;10.93;80.90
21760;BME280;11041;50.854;20.580;2023-04-25T01:12:29;97470.28;;;10.88;81.20
21760;BME280;11041;50.854;20.580;2023-04-25T01:14:56;97497.47;;;11.05;80.86
21760;BME280;11041;50.854;20.580;2023-04-25T01:17:23;97494.47;;;11.11;80.48
21760;BME280;11041;50.854;20.580;2023-04-25T01:19:50;97462.97;;;10.92;80.52
21760;BME280;11041;50.854;20.580;2023-04-25T01:22:17;97490.47;;;11.08;80.45
21760;BME280;11041;50.854;20.580;2023-04-25T01:24:44;97456.69;;;10.79;80.49
21760;BME280;11041;50.854;20.580;2023-04-25T01:27:12;97459.63;;;10.86;81.00
21760;BME280;11041;50.854;20.580;2023-04-25T01:29:39;97469.00;;;10.98;81.34
21760;BME280;11041;50.854;20.580;2023-04-25T01:32:07;97464.09;;;10.91;81.49
21760;BME280;11041;50.854;20.580;2023-04-25T01:34:33;97459.06;;;10.93;81.21
21760;BME280;11041;50.854;20.580;2023-04-25T01:37:00;97474.16;;;10.99;81.53
21760;BME280;11041;50.854;20.580;2023-04-25T01:39:28;97481.00;;;11.05;81.72
21760;BME280;11041;50.854;20.580;2023-04-25T01:42:20;97471.94;;;11.05;81.79
21760;BME280;11041;50.854;20.580;2023-04-25T01:45:12;97453.22;;;10.95;82.08
21760;BME280;11041;50.854;20.580;2023-04-25T01:48:03;97464.66;;;10.97;81.95
21760;BME280;11041;50.854;20.580;2023-04-25T01:50:54;97445.44;;;10.97;81.95
21760;BME280;11041;50.854;20.580;2023-04-25T01:53:45;97484.59;;;11.22;82.25
21760;BME280;11041;50.854;20.580;2023-04-25T01:56:39;97472.69;;;11.18;82.00
21760;BME280;11041;50.854;20.580;2023-04-25T01:59:31;97472.81;;;11.21;82.38
21760;BME280;11041;50.854;20.580;2023-04-25T02:02:23;97460.38;;;11.12;82.87
21760;BME280;11041;50.854;20.580;2023-04-25T02:23:23;97486.31;;;11.42;83.01
21760;BME280;11041;50.854;20.580;2023-04-25T02:25:50;97474.06;;;11.40;83.59
21760;BME280;11041;50.854;20.580;2023-04-25T02:28:18;97441.81;;;11.08;85.03
21760;BME280;11041;50.854;20.580;2023-04-25T02:30:44;97475.69;;;11.13;85.54
21760;BME280;11041;50.854;20.580;2023-04-25T02:33:11;97477.69;;;11.00;86.85
21760;BME280;11041;50.854;20.580;2023-04-25T02:35:38;97464.78;;;10.88;87.33
21760;BME280;11041;50.854;20.580;2023-04-25T02:38:04;97466.38;;;10.89;87.64
21760;BME280;11041;50.854;20.580;2023-04-25T02:40:30;97472.34;;;10.91;88.31
21760;BME280;11041;50.854;20.580;2023-04-25T02:42:57;97473.69;;;10.97;89.01
21760;BME280;11041;50.854;20.580;2023-04-25T02:45:23;97449.91;;;10.89;90.01
21760;BME280;11041;50.854;20.580;2023-04-25T02:47:50;97465.78;;;10.96;90.87
21760;BME280;11041;50.854;20.580;2023-04-25T02:50:17;97453.28;;;10.70;90.75
21760;BME280;11041;50.854;20.580;2023-04-25T02:52:44;97477.56;;;10.68;91.15
21760;BME280;11041;50.854;20.580;2023-04-25T02:55:13;97474.28;;;10.38;91.56
21760;BME280;11041;50.854;20.580;2023-04-25T02:57:40;97470.72;;;10.25;93.09
21760;BME280;11041;50.854;20.580;2023-04-25T03:00:07;97470.38;;;10.14;93.91
21760;BME280;11041;50.854;20.580;2023-04-25T03:02:34;97484.34;;;10.09;93.26
21760;BME280;11041;50.854;20.580;2023-04-25T03:05:00;97473.22;;;9.81;93.35
21760;BME280;11041;50.854;20.580;2023-04-25T03:07:27;97489.44;;;9.74;94.46
21760;BME280;11041;50.854;20.580;2023-04-25T03:09:53;97508.22;;;9.84;93.92
21760;BME280;11041;50.854;20.580;2023-04-25T03:12:19;97489.56;;;9.65;94.29
21760;BME280;11041;50.854;20.580;2023-04-25T03:14:46;97484.69;;;9.50;94.57
21760;BME280;11041;50.854;20.580;2023-04-25T03:17:12;97509.31;;;9.58;94.90
21760;BME280;11041;50.854;20.580;2023-04-25T03:19:39;97473.38;;;9.39;95.08
21760;BME280;11041;50.854;20.580;2023-04-25T03:22:05;97505.88;;;9.62;94.49
21760;BME280;11041;50.854;20.580;2023-04-25T03:24:32;97500.81;;;9.51;95.03
21760;BME280;11041;50.854;20.580;2023-04-25T03:26:58;97500.31;;;9.37;95.45
21760;BME280;11041;50.854;20.580;2023-04-25T03:29:25;97499.59;;;9.28;95.40
21760;BME280;11041;50.854;20.580;2023-04-25T03:31:52;97508.75;;;9.32;96.22
21760;BME280;11041;50.854;20.580;2023-04-25T03:34:19;97505.34;;;9.35;96.93
21760;BME280;11041;50.854;20.580;2023-04-25T03:36:47;97494.59;;;9.30;96.93
21760;BME280;11041;50.854;20.580;2023-04-25T03:39:14;97496.75;;;9.24;96.95
21760;BME280;11041;50.854;20.580;2023-04-25T03:41:40;97503.50;;;9.27;96.95
21760;BME280;11041;50.854;20.580;2023-04-25T03:44:07;97489.59;;;9.11;97.23
21760;BME280;11041;50.854;20.580;2023-04-25T03:46:33;97488.59;;;9.15;97.34
21760;BME280;11041;50.854;20.580;2023-04-25T03:49:00;97511.72;;;9.27;97.31
21760;BME280;11041;50.854;20.580;2023-04-25T03:51:26;97491.81;;;9.17;97.48
21760;BME280;11041;50.854;20.580;2023-04-25T03:53:53;97500.13;;;9.21;97.24
21760;BME280;11041;50.854;20.580;2023-04-25T03:56:20;97489.84;;;9.18;97.48
21760;BME280;11041;50.854;20.580;2023-04-25T03:58:47;97491.47;;;9.19;97.26
21760;BME280;11041;50.854;20.580;2023-04-25T04:01:13;97515.59;;;9.26;97.21
21760;BME280;11041;50.854;20.580;2023-04-25T04:03:40;97522.22;;;9.25;97.40
21760;BME280;11041;50.854;20.580;2023-04-25T04:06:08;97501.50;;;9.15;97.43
21760;BME280;11041;50.854;20.580;2023-04-25T04:08:35;97519.94;;;9.27;97.78
21760;BME280;11041;50.854;20.580;2023-04-25T04:11:01;97503.78;;;9.13;97.68
21760;BME280;11041;50.854;20.580;2023-04-25T04:13:29;97534.31;;;9.24;97.85
21760;BME280;11041;50.854;20.580;2023-04-25T04:15:56;97536.66;;;9.13;98.66
21760;BME280;11041;50.854;20.580;2023-04-25T04:18:23;97534.50;;;9.18;98.60
21760;BME280;11041;50.854;20.580;2023-04-25T04:20:50;97510.34;;;9.00;98.81
21760;BME280;11041;50.854;20.580;2023-04-25T04:23:17;97514.34;;;9.02;99.10
21760;BME280;11041;50.854;20.580;2023-04-25T04:25:43;97520.22;;;9.13;99.31
21760;BME280;11041;50.854;20.580;2023-04-25T04:28:10;97542.34;;;9.29;99.13
21760;BME280;11041;50.854;20.580;2023-04-25T04:30:37;97535.38;;;9.31;98.72
21760;BME280;11041;50.854;20.580;2023-04-25T04:33:03;97523.53;;;9.18;98.48
21760;BME280;11041;50.854;20.580;2023-04-25T04:35:30;97532.50;;;9.28;98.26
21760;BME280;11041;50.854;20.580;2023-04-25T04:37:56;97522.91;;;9.22;98.31
21760;BME280;11041;50.854;20.580;2023-04-25T04:40:22;97537.66;;;9.29;98.17
21760;BME280;11041;50.854;20.580;2023-04-25T04:42:49;97544.72;;;9.30;98.08
21760;BME280;11041;50.854;20.580;2023-04-25T04:45:16;97549.19;;;9.35;98.18
21760;BME280;11041;50.854;20.580;2023-04-25T04:47:43;97542.81;;;9.31;97.71
21760;BME280;11041;50.854;20.580;2023-04-25T04:50:10;97538.66;;;9.25;98.05
21760;BME280;11041;50.854;20.580;2023-04-25T04:52:38;97527.66;;;9.12;98.10
21760;BME280;11041;50.854;20.580;2023-04-25T04:55:06;97531.06;;;9.09;98.38
21760;BME280;11041;50.854;20.580;2023-04-25T04:57:32;97550.63;;;9.20;98.30
21760;BME280;11041;50.854;20.580;2023-04-25T04:59:59;97524.69;;;8.96;98.38
21760;BME280;11041;50.854;20.580;2023-04-25T05:02:27;97549.88;;;9.11;98.11
21760;BME280;11041;50.854;20.580;2023-04-25T05:04:53;97558.31;;;9.06;98.61
21760;BME280;11041;50.854;20.580;2023-04-25T05:07:20;97550.41;;;9.04;98.99
21760;BME280;11041;50.854;20.580;2023-04-25T05:09:47;97558.63;;;9.04;98.91
21760;BME280;11041;50.854;20.580;2023-04-25T05:12:13;97556.06;;;9.08;98.97
21760;BME280;11041;50.854;20.580;2023-04-25T05:14:40;97546.78;;;9.00;98.40
21760;BME280;11041;50.854;20.580;2023-04-25T05:17:06;97544.22;;;8.95;98.17
21760;BME280;11041;50.854;20.580;2023-04-25T05:19:34;97542.34;;;8.87;98.09
21760;BME280;11041;50.854;20.580;2023-04-25T05:22:02;97544.16;;;8.83;98.29
21760;BME280;11041;50.854;20.580;2023-04-25T05:24:29;97559.66;;;8.79;98.61
21760;BME280;11041;50.854;20.580;2023-04-25T05:26:57;97563.34;;;8.83;98.22
21760;BME280;11041;50.854;20.580;2023-04-25T05:29:24;97541.25;;;8.58;98.63
21760;BME280;11041;50.854;20.580;2023-04-25T05:31:50;97534.66;;;8.59;98.47
21760;BME280;11041;50.854;20.580;2023-04-25T05:34:17;97546.69;;;8.67;98.22
21760;BME280;11041;50.854;20.580;2023-04-25T05:36:44;97564.97;;;8.75;98.14
21760;BME280;11041;50.854;20.580;2023-04-25T05:39:10;97567.25;;;8.73;98.64
21760;BME280;11041;50.854;20.580;2023-04-25T05:41:37;97545.63;;;8.50;98.48
21760;BME280;11041;50.854;20.580;2023-04-25T05:44:04;97541.81;;;8.43;98.56
21760;BME280;11041;50.854;20.580;2023-04-25T05:46:31;97572.78;;;8.64;98.62
21760;BME280;11041;50.854;20.580;2023-04-25T05:48:57;97562.66;;;8.56;98.55
21760;BME280;11041;50.854;20.580;2023-04-25T05:51:24;97555.47;;;8.51;98.87
21760;BME280;11041;50.854;20.580;2023-04-25T05:53:50;97559.66;;;8.49;98.83
21760;BME280;11041;50.854;20.580;2023-04-25T05:56:17;97548.09;;;8.43;98.89
21760;BME280;11041;50.854;20.580;2023-04-25T05:58:43;97579.75;;;8.53;98.83
21760;BME280;11041;50.854;20.580;2023-04-25T06:01:10;97563.53;;;8.48;98.75
21760;BME280;11041;50.854;20.580;2023-04-25T06:03:36;97567.41;;;8.47;98.51
21760;BME280;11041;50.854;20.580;2023-04-25T06:06:04;97578.97;;;8.52;98.29
21760;BME280;11041;50.854;20.580;2023-04-25T06:08:31;97583.84;;;8.47;98.47
21760;BME280;11041;50.854;20.580;2023-04-25T06:10:58;97577.41;;;8.43;99.11
21760;BME280;11041;50.854;20.580;2023-04-25T06:13:24;97583.38;;;8.45;99.68
21760;BME280;11041;50.854;20.580;2023-04-25T06:15:51;97577.88;;;8.45;99.50
21760;BME280;11041;50.854;20.580;2023-04-25T06:18:17;97584.81;;;8.42;98.60
21760;BME280;11041;50.854;20.580;2023-04-25T06:20:44;97592.72;;;8.35;98.93
21760;BME280;11041;50.854;20.580;2023-04-25T06:23:10;97583.16;;;8.11;99.34
21760;BME280;11041;50.854;20.580;2023-04-25T06:25:37;97576.81;;;8.20;99.26
21760;BME280;11041;50.854;20.580;2023-04-25T06:28:04;97606.72;;;8.33;99.03
21760;BME280;11041;50.854;20.580;2023-04-25T06:30:30;97593.69;;;8.30;99.00
21760;BME280;11041;50.854;20.580;2023-04-25T06:32:57;97591.47;;;8.24;98.64
21760;BME280;11041;50.854;20.580;2023-04-25T06:35:24;97586.50;;;8.17;99.00
21760;BME280;11041;50.854;20.580;2023-04-25T06:37:50;97592.25;;;8.24;99.12
21760;BME280;11041;50.854;20.580;2023-04-25T06:40:17;97597.72;;;8.24;98.07
21760;BME280;11041;50.854;20.580;2023-04-25T06:42:43;97628.00;;;8.28;97.81
21760;BME280;11041;50.854;20.580;2023-04-25T06:45:10;97578.84;;;8.02;97.57
21760;BME280;11041;50.854;20.580;2023-04-25T06:47:37;97594.28;;;8.06;98.04
21760;BME280;11041;50.854;20.580;2023-04-25T06:50:05;97590.88;;;8.09;97.73
21760;BME280;11041;50.854;20.580;2023-04-25T06:52:32;97620.28;;;8.21;97.85
21760;BME280;11041;50.854;20.580;2023-04-25T06:54:58;97603.09;;;8.12;98.20
21760;BME280;11041;50.854;20.580;2023-04-25T06:57:25;97608.56;;;8.12;97.77
21760;BME280;11041;50.854;20.580;2023-04-25T06:59:52;97611.47;;;8.07;97.27
21760;BME280;11041;50.854;20.580;2023-04-25T07:02:18;97623.41;;;8.11;97.40
21760;BME280;11041;50.854;20.580;2023-04-25T07:04:45;97593.97;;;7.99;98.06
21760;BME280;11041;50.854;20.580;2023-04-25T07:07:12;97601.38;;;7.99;98.56
21760;BME280;11041;50.854;20.580;2023-04-25T07:09:39;97615.19;;;8.11;97.31
21760;BME280;11041;50.854;20.580;2023-04-25T07:12:05;97585.66;;;7.87;97.29
21760;BME280;11041;50.854;20.580;2023-04-25T07:14:33;97598.53;;;7.86;97.73
21760;BME280;11041;50.854;20.580;2023-04-25T07:17:05;97601.25;;;7.86;97.52
21760;BME280;11041;50.854;20.580;2023-04-25T07:19:33;97620.66;;;8.02;97.33
21760;BME280;11041;50.854;20.580;2023-04-25T07:21:59;97607.84;;;7.85;98.16
21760;BME280;11041;50.854;20.580;2023-04-25T07:24:26;97616.53;;;7.96;97.34
21760;BME280;11041;50.854;20.580;2023-04-25T07:26:53;97613.44;;;7.98;97.89
21760;BME280;11041;50.854;20.580;2023-04-25T07:29:19;97611.97;;;8.09;96.36
21760;BME280;11041;50.854;20.580;2023-04-25T07:31:46;97641.56;;;8.16;94.84
21760;BME280;11041;50.854;20.580;2023-04-25T07:34:12;97614.88;;;8.04;96.63
21760;BME280;11041;50.854;20.580;2023-04-25T07:36:39;97596.88;;;7.94;96.50
21760;BME280;11041;50.854;20.580;2023-04-25T07:39:06;97628.19;;;8.14;96.14
21760;BME280;11041;50.854;20.580;2023-04-25T07:41:32;97616.84;;;7.86;95.62
21760;BME280;11041;50.854;20.580;2023-04-25T07:43:59;97628.44;;;7.92;96.46
21760;BME280;11041;50.854;20.580;2023-04-25T07:46:26;97641.75;;;7.93;96.28
21760;BME280;11041;50.854;20.580;2023-04-25T07:48:54;97643.34;;;8.03;96.34
21760;BME280;11041;50.854;20.580;2023-04-25T07:51:20;97641.75;;;8.02;95.78
21760;BME280;11041;50.854;20.580;2023-04-25T07:53:48;97638.38;;;8.05;95.82
21760;BME280;11041;50.854;20.580;2023-04-25T07:56:15;97634.22;;;7.99;94.79
21760;BME280;11041;50.854;20.580;2023-04-25T07:58:41;97630.00;;;8.01;95.15
21760;BME280;11041;50.854;20.580;2023-04-25T08:01:08;97620.38;;;7.95;94.90
21760;BME280;11041;50.854;20.580;2023-04-25T08:03:34;97645.91;;;8.08;95.99
21760;BME280;11041;50.854;20.580;2023-04-25T08:06:01;97635.97;;;7.95;94.96
21760;BME280;11041;50.854;20.580;2023-04-25T08:08:27;97634.66;;;8.01;95.66
21760;BME280;11041;50.854;20.580;2023-04-25T08:10:55;97639.50;;;8.04;95.39
21760;BME280;11041;50.854;20.580;2023-04-25T08:13:21;97660.25;;;8.14;95.74
21760;BME280;11041;50.854;20.580;2023-04-25T08:15:48;97640.78;;;7.98;95.39
21760;BME280;11041;50.854;20.580;2023-04-25T08:18:14;97673.13;;;8.13;96.31
21760;BME280;11041;50.854;20.580;2023-04-25T08:20:41;97658.78;;;8.16;95.86
21760;BME280;11041;50.854;20.580;2023-04-25T08:23:07;97664.25;;;8.16;93.51
21760;BME280;11041;50.854;20.580;2023-04-25T08:25:34;97649.16;;;7.93;94.61
21760;BME280;11041;50.854;20.580;2023-04-25T08:28:01;97674.59;;;7.93;95.61
21760;BME280;11041;50.854;20.580;2023-04-25T08:30:29;97670.72;;;8.03;94.48
21760;BME280;11041;50.854;20.580;2023-04-25T08:32:56;97655.13;;;7.95;96.08
21760;BME280;11041;50.854;20.580;2023-04-25T08:35:23;97678.13;;;8.02;97.11
21760;BME280;11041;50.854;20.580;2023-04-25T08:37:50;97666.19;;;8.07;96.78
21760;BME280;11041;50.854;20.580;2023-04-25T08:40:19;97672.00;;;8.05;96.11
21760;BME280;11041;50.854;20.580;2023-04-25T08:42:54;97678.44;;;8.01;96.50
21760;BME280;11041;50.854;20.580;2023-04-25T08:45:22;97674.28;;;7.95;98.29
21760;BME280;11041;50.854;20.580;2023-04-25T08:47:52;97660.78;;;7.81;98.21
21760;BME280;11041;50.854;20.580;2023-04-25T08:50:19;97664.00;;;7.92;98.07
21760;BME280;11041;50.854;20.580;2023-04-25T08:52:50;97673.31;;;7.90;95.41
21760;BME280;11041;50.854;20.580;2023-04-25T08:55:21;97679.56;;;7.91;95.77
21760;BME280;11041;50.854;20.580;2023-04-25T08:57:48;97687.13;;;8.03;94.73
21760;BME280;11041;50.854;20.580;2023-04-25T09:00:17;97668.84;;;7.77;93.87
21760;BME280;11041;50.854;20.580;2023-04-25T09:02:45;97683.94;;;7.83;95.19
21760;BME280;11041;50.854;20.580;2023-04-25T09:05:14;97697.59;;;7.92;94.15
21760;BME280;11041;50.854;20.580;2023-04-25T09:07:40;97695.84;;;7.87;94.24
21760;BME280;11041;50.854;20.580;2023-04-25T09:10:08;97700.34;;;7.92;94.85
21760;BME280;11041;50.854;20.580;2023-04-25T09:12:35;97710.00;;;7.89;93.43
21760;BME280;11041;50.854;20.580;2023-04-25T09:15:12;97712.88;;;7.93;93.20
21760;BME280;11041;50.854;20.580;2023-04-25T09:17:41;97687.81;;;7.74;91.76
21760;BME280;11041;50.854;20.580;2023-04-25T09:20:13;97692.28;;;7.69;92.25
21760;BME280;11041;50.854;20.580;2023-04-25T09:22:39;97712.91;;;7.84;92.08
21760;BME280;11041;50.854;20.580;2023-04-25T09:25:11;97708.88;;;7.82;91.72
21760;BME280;11041;50.854;20.580;2023-04-25T09:28:03;97701.31;;;7.87;91.10
21760;BME280;11041;50.854;20.580;2023-04-25T09:30:33;97704.69;;;7.84;92.63
21760;BME280;11041;50.854;20.580;2023-04-25T09:33:10;97695.97;;;8.00;93.28
21760;BME280;11041;50.854;20.580;2023-04-25T09:35:43;97703.88;;;8.01;92.41
21760;BME280;11041;50.854;20.580;2023-04-25T09:38:14;97704.19;;;8.00;90.25
21760;BME280;11041;50.854;20.580;2023-04-25T09:40:46;97706.44;;;8.06;91.32
21760;BME280;11041;50.854;20.580;2023-04-25T09:43:25;97719.47;;;8.09;88.07
21760;BME280;11041;50.854;20.580;2023-04-25T09:45:54;97699.53;;;8.09;88.14
21760;BME280;11041;50.854;20.580;2023-04-25T09:48:27;97700.44;;;8.22;89.15
21760;BME280;11041;50.854;20.580;2023-04-25T09:51:08;97694.66;;;8.23;88.46
21760;BME280;11041;50.854;20.580;2023-04-25T09:53:39;97714.94;;;8.40;86.20
21760;BME280;11041;50.854;20.580;2023-04-25T09:56:09;97713.13;;;8.44;86.48
21760;BME280;11041;50.854;20.580;2023-04-25T09:58:39;97704.47;;;8.24;85.44
21760;BME280;11041;50.854;20.580;2023-04-25T10:01:10;97696.28;;;8.07;87.26
21760;BME280;11041;50.854;20.580;2023-04-25T10:03:39;97725.56;;;8.24;87.53
21760;BME280;11041;50.854;20.580;2023-04-25T10:06:18;97697.56;;;8.09;86.85
21760;BME280;11041;50.854;20.580;2023-04-25T10:08:51;97699.03;;;8.07;86.86
21760;BME280;11041;50.854;20.580;2023-04-25T10:11:21;97717.69;;;8.14;87.30
21760;BME280;11041;50.854;20.580;2023-04-25T10:13:51;97711.09;;;8.15;88.18
21760;BME280;11041;50.854;20.580;2023-04-25T10:16:19;97699.53;;;8.09;87.11
21760;BME280;11041;50.854;20.580;2023-04-25T10:18:46;97709.00;;;8.20;86.20
21760;BME280;11041;50.854;20.580;2023-04-25T10:21:14;97695.81;;;8.05;86.33
21760;BME280;11041;50.854;20.580;2023-04-25T10:23:42;97708.03;;;8.16;86.76
21760;BME280;11041;50.854;20.580;2023-04-25T10:26:10;97712.03;;;8.45;85.63
21760;BME280;11041;50.854;20.580;2023-04-25T10:28:59;97710.88;;;8.46;86.11
21760;BME280;11041;50.854;20.580;2023-04-25T10:31:29;97690.16;;;8.27;85.72
21760;BME280;11041;50.854;20.580;2023-04-25T10:33:56;97696.38;;;8.37;84.80
21760;BME280;11041;50.854;20.580;2023-04-25T10:36:24;97716.84;;;8.48;85.63
21760;BME280;11041;50.854;20.580;2023-04-25T10:38:53;97708.16;;;8.46;82.88
21760;BME280;11041;50.854;20.580;2023-04-25T10:41:21;97700.25;;;8.36;82.17
21760;BME280;11041;50.854;20.580;2023-04-25T10:43:59;97696.25;;;8.33;81.11
21760;BME280;11041;50.854;20.580;2023-04-25T10:46:29;97707.19;;;8.42;80.37
21760;BME280;11041;50.854;20.580;2023-04-25T10:49:02;97704.75;;;8.49;78.05
21760;BME280;11041;50.854;20.580;2023-04-25T10:59:23;97688.22;;;8.28;79.16
21760;BME280;11041;50.854;20.580;2023-04-25T11:10:49;97708.00;;;8.42;82.03
21760;BME280;11041;50.854;20.580;2023-04-25T11:13:23;97708.50;;;8.44;83.25
21760;BME280;11041;50.854;20.580;2023-04-25T11:29:26;97702.69;;;8.28;83.07
21760;BME280;11041;50.854;20.580;2023-04-25T11:36:41;97707.84;;;8.30;83.95
21760;BME280;11041;50.854;20.580;2023-04-25T11:40:06;97730.38;;;8.27;82.83
21760;BME280;11041;50.854;20.580;2023-04-25T11:43:04;97706.41;;;8.15;82.02
21760;BME280;11041;50.854;20.580;2023-04-25T11:50:51;97698.69;;;8.17;81.64
21760;BME280;11041;50.854;20.580;2023-04-25T11:58:06;97703.22;;;8.13;80.03
21760;BME280;11041;50.854;20.580;2023-04-25T12:01:49;97715.75;;;8.40;79.43
21760;BME280;11041;50.854;20.580;2023-04-25T12:05:35;97703.13;;;8.39;78.54
21760;BME280;11041;50.854;20.580;2023-04-25T12:09:13;97701.69;;;8.50;78.30
21760;BME280;11041;50.854;20.580;2023-04-25T12:36:04;97711.78;;;8.67;83.30
21760;BME280;11041;50.854;20.580;2023-04-25T12:39:03;97707.44;;;8.66;84.15
21760;BME280;11041;50.854;20.580;2023-04-25T12:42:01;97706.34;;;8.59;83.58
21760;BME280;11041;50.854;20.580;2023-04-25T12:44:33;97705.56;;;8.49;84.90
21760;BME280;11041;50.854;20.580;2023-04-25T12:47:08;97708.25;;;8.58;85.82
21760;BME280;11041;50.854;20.580;2023-04-25T12:49:42;97715.03;;;8.61;86.46
21760;BME280;11041;50.854;20.580;2023-04-25T12:52:12;97709.22;;;8.71;86.84
21760;BME280;11041;50.854;20.580;2023-04-25T12:54:38;97703.94;;;8.57;86.30
21760;BME280;11041;50.854;20.580;2023-04-25T12:57:05;97699.44;;;8.52;87.48
21760;BME280;11041;50.854;20.580;2023-04-25T12:59:36;97698.16;;;8.50;88.13
21760;BME280;11041;50.854;20.580;2023-04-25T13:02:02;97710.22;;;8.49;87.69
21760;BME280;11041;50.854;20.580;2023-04-25T13:04:31;97690.78;;;8.33;88.28
21760;BME280;11041;50.854;20.580;2023-04-25T13:06:57;97701.06;;;8.45;89.39
21760;BME280;11041;50.854;20.580;2023-04-25T13:09:27;97701.56;;;8.47;89.75
21760;BME280;11041;50.854;20.580;2023-04-25T13:11:56;97699.72;;;8.60;89.57
21760;BME280;11041;50.854;20.580;2023-04-25T13:14:24;97690.53;;;8.64;89.32
21760;BME280;11041;50.854;20.580;2023-04-25T13:16:50;97688.56;;;8.73;89.67
21760;BME280;11041;50.854;20.580;2023-04-25T13:19:29;97702.19;;;8.91;89.42
21760;BME280;11041;50.854;20.580;2023-04-25T13:38:10;97684.78;;;8.48;90.16
21760;BME280;11041;50.854;20.580;2023-04-25T13:40:37;97696.72;;;8.44;90.40
21760;BME280;11041;50.854;20.580;2023-04-25T13:43:03;97709.28;;;8.45;91.17
21760;BME280;11041;50.854;20.580;2023-04-25T13:45:30;97712.34;;;8.43;91.75
21760;BME280;11041;50.854;20.580;2023-04-25T13:47:57;97709.91;;;8.42;92.00
21760;BME280;11041;50.854;20.580;2023-04-25T13:50:23;97715.91;;;8.26;91.49
21760;BME280;11041;50.854;20.580;2023-04-25T13:52:50;97710.09;;;8.28;92.53
21760;BME280;11041;50.854;20.580;2023-04-25T13:55:16;97715.72;;;8.31;93.04
21760;BME280;11041;50.854;20.580;2023-04-25T13:57:43;97718.28;;;8.37;91.43
21760;BME280;11041;50.854;20.580;2023-04-25T14:00:10;97719.44;;;8.44;91.79
21760;BME280;11041;50.854;20.580;2023-04-25T14:02:38;97714.75;;;8.45;91.50
21760;BME280;11041;50.854;20.580;2023-04-25T14:05:05;97725.91;;;8.40;89.77
21760;BME280;11041;50.854;20.580;2023-04-25T14:07:34;97720.56;;;8.35;89.09
21760;BME280;11041;50.854;20.580;2023-04-25T14:10:02;97725.69;;;8.36;88.87
21760;BME280;11041;50.854;20.580;2023-04-25T14:12:40;97725.56;;;8.32;89.32
21760;BME280;11041;50.854;20.580;2023-04-25T14:15:12;97727.81;;;8.30;90.65
21760;BME280;11041;50.854;20.580;2023-04-25T14:17:44;97725.38;;;8.38;90.84
21760;BME280;11041;50.854;20.580;2023-04-25T14:20:20;97729.56;;;8.35;90.92
21760;BME280;11041;50.854;20.580;2023-04-25T14:22:49;97726.66;;;8.31;91.78
21760;BME280;11041;50.854;20.580;2023-04-25T14:25:16;97726.66;;;8.31;91.49
21760;BME280;11041;50.854;20.580;2023-04-25T14:28:09;97731.81;;;8.33;91.69
21760;BME280;11041;50.854;20.580;2023-04-25T14:34:28;97727.50;;;8.15;92.83
21760;BME280;11041;50.854;20.580;2023-04-25T14:36:54;97731.69;;;8.12;93.71
21760;BME280;11041;50.854;20.580;2023-04-25T14:39:21;97719.63;;;8.13;94.15
21760;BME280;11041;50.854;20.580;2023-04-25T14:41:47;97735.25;;;8.04;93.58
21760;BME280;11041;50.854;20.580;2023-04-25T14:44:14;97724.63;;;8.02;94.11
21760;BME280;11041;50.854;20.580;2023-04-25T14:46:41;97725.94;;;7.96;93.51
21760;BME280;11041;50.854;20.580;2023-04-25T14:49:08;97736.72;;;8.01;93.25
21760;BME280;11041;50.854;20.580;2023-04-25T14:51:34;97731.41;;;7.96;93.18
21760;BME280;11041;50.854;20.580;2023-04-25T14:54:01;97734.94;;;7.88;92.44
21760;BME280;11041;50.854;20.580;2023-04-25T14:56:28;97747.50;;;7.89;92.83
21760;BME280;11041;50.854;20.580;2023-04-25T14:58:54;97736.25;;;7.82;93.01